Terminal Aerodrome Forecast
Issued by NWS Charleston, WV

Home | Current Version | Previous Version | Text Only | Print | Product List | Glossary On
Versions: 1 2 3 4 5 6 7 8 9 10 11 12 13 14 15 16 17 18 19 20 21 22 23 24 25
000
FTUS41 KRLX 312000 AAB
TAFHTS
TAF AMD
KHTS 312059Z 3121/0118 20003KT 6SM -RA BR BKN026 OVC035
     FM010000 29006KT 2SM -SHRA BR OVC015
     FM010400 32009G14KT 2SM -RASN BR OVC008
     FM011300 35011G19KT 4SM -RASN BR OVC010
     FM011500 34012G20KT 5SM BR OVC015
     FM011700 34011G19KT P6SM OVC025=

USA.gov is the U.S. government's official web portal to all federal, state and local government web resources and services.